Laramie, Wyoming
Current Conditions -  °F | °C
As of 8:53 PM on Friday 19 Dec 2014 (Local Time) from KLAR Reporting Station
Clear Clear  
Wind Chill: 12°   Ceiling: Unl
Heat Index: 24°   Visibility: 10mi
Dew Point: 13°   Wind: 14mph
Humidity: 62%   Direction: 240°WSW
Pressure: 30.01"   Gusts: NA
Location:  41.31°N, 105.59°W
Report Text: KLAR 200353Z AUTO 24012KT 10SM CLR M04/M11 A3001 RMK AO2 SLP189 T10441106
Loading
Personal Weather Stations






























Interactive Weather Map New forecast layout! Learn more

10-Day Weather Forecast

Advertisements
Track Severe Weather on mobile